LDDU/DBV METAR and TAF weather

Enter ICAO airport designator
Station Type Date Time Source
LDDU METAR 2020/04/04 11:00 UTC NOAA

LDDU 041100Z 06016G28KT 360V120 CAVOK 17/M03 Q1012 TEMPO 03025G35KT


Station Type Date Time Source
LDDU Decoded METAR 2020/04/04 11:00 UTC NOAA

Dubrovnik / Cilipi, Croatia (LDDU) 42-34N 018-16E 165M
Apr 04, 2020 - 07:00 AM EDT / 2020.04.04 1100 UTC
Wind: from the ENE (060 degrees) at 18 MPH (16 KT) gusting to 32 MPH (28 KT) (direction variable):0
Visibility: greater than 7 mile(s):0
Temperature: 62 F (17 C)
Dew Point: 26 F (-3 C)
Relative Humidity: 25%
Pressure (altimeter): 29.88 in. Hg (1012 hPa)
ob: LDDU 041100Z 06016G28KT 360V120 CAVOK 17/M03 Q1012 TEMPO 03025G35KT
cycle: 11

Station Type Date Time Source
LDDU TAF 2020/04/04 06:27 UTC NOAA

TAF TAF LDDU 040525Z 0406/0506 03020KT CAVOK TX18/0412Z TN13/0406Z
TEMPO 0406/0412 03025G35KT
BECMG 0412/0414 03028G40KT PROB40
TEMPO 0415/0500 03030G50KT

Example: see airport list